createdAt,value
2022-10-24T00:00:15.677Z,9.47
2022-10-24T00:03:02.601Z,9.42
2022-10-24T00:05:29.317Z,9.42
2022-10-24T00:07:56.010Z,9.40
2022-10-24T00:10:22.987Z,9.34
2022-10-24T00:12:49.626Z,9.28
2022-10-24T00:15:16.388Z,9.23
2022-10-24T00:17:43.103Z,9.19
2022-10-24T00:20:13.601Z,9.13
2022-10-24T00:22:40.393Z,9.11
2022-10-24T00:25:07.394Z,9.08
2022-10-24T00:27:35.645Z,9.04
2022-10-24T00:30:04.833Z,8.98
2022-10-24T00:32:32.109Z,8.96
2022-10-24T00:34:58.714Z,8.96
2022-10-24T00:37:25.356Z,8.97
2022-10-24T00:39:52.026Z,8.97
2022-10-24T00:42:18.638Z,8.95
2022-10-24T00:44:46.139Z,8.95
2022-10-24T00:47:17.232Z,8.99
2022-10-24T00:50:12.235Z,9.01
2022-10-24T00:52:44.566Z,9.00
2022-10-24T00:55:12.956Z,8.99
2022-10-24T00:57:43.562Z,8.99
2022-10-24T01:00:18.254Z,8.98
2022-10-24T01:02:45.604Z,8.96
2022-10-24T01:05:14.032Z,8.95
2022-10-24T01:08:14.393Z,8.98
2022-10-24T01:10:48.175Z,8.99
2022-10-24T01:13:45.908Z,9.01
2022-10-24T01:16:20.970Z,9.06
2022-10-24T01:18:57.423Z,9.06
2022-10-24T01:21:34.784Z,9.03
2022-10-24T01:24:07.046Z,9.02
2022-10-24T01:26:51.874Z,9.04
2022-10-24T01:29:35.361Z,9.07
2022-10-24T01:32:32.465Z,9.10
2022-10-24T01:35:23.866Z,9.10
2022-10-24T01:38:12.380Z,9.10
2022-10-24T01:40:55.667Z,9.06
2022-10-24T01:43:34.107Z,9.01
2022-10-24T01:46:05.077Z,8.97
2022-10-24T01:48:37.908Z,8.89
2022-10-24T01:51:07.043Z,8.82
2022-10-24T01:53:36.295Z,8.77
2022-10-24T01:56:03.061Z,8.69
2022-10-24T01:58:29.745Z,8.63
2022-10-24T02:01:01.362Z,8.58
2022-10-24T02:03:36.115Z,8.52
2022-10-24T02:06:26.043Z,8.46
2022-10-24T02:09:00.416Z,8.39
2022-10-24T02:11:27.211Z,8.35
2022-10-24T02:14:02.153Z,8.31
2022-10-24T02:16:29.387Z,8.26
2022-10-24T02:18:58.077Z,8.23
2022-10-24T02:21:41.872Z,8.20
2022-10-24T02:24:32.809Z,8.16
2022-10-24T02:27:05.381Z,8.12
2022-10-24T02:29:38.061Z,8.09
2022-10-24T02:32:09.332Z,8.08
2022-10-24T02:34:39.252Z,8.10
2022-10-24T02:37:08.194Z,8.14
2022-10-24T02:39:37.673Z,8.20
2022-10-24T02:42:06.505Z,8.25
2022-10-24T02:44:34.609Z,8.32
2022-10-24T02:47:04.704Z,8.35
2022-10-24T02:49:31.452Z,8.37
2022-10-24T02:51:59.724Z,8.41
2022-10-24T02:54:26.356Z,8.42
2022-10-24T02:56:59.279Z,8.42
2022-10-24T02:59:25.911Z,8.43
2022-10-24T03:01:52.650Z,8.46
2022-10-24T03:04:19.513Z,8.49
2022-10-24T03:06:46.633Z,8.49
2022-10-24T03:09:13.387Z,8.49
2022-10-24T03:11:40.738Z,8.49
2022-10-24T03:14:07.419Z,8.43
2022-10-24T03:16:34.071Z,8.40
2022-10-24T03:19:00.721Z,8.37
2022-10-24T03:21:27.426Z,8.32
2022-10-24T03:23:54.183Z,8.33
2022-10-24T03:26:20.881Z,8.36
2022-10-24T03:28:47.531Z,8.40
2022-10-24T03:31:14.172Z,8.40
2022-10-24T03:33:40.835Z,8.44
2022-10-24T03:36:08.008Z,8.48
2022-10-24T03:38:34.670Z,8.49
2022-10-24T03:41:01.322Z,8.44
2022-10-24T03:43:27.943Z,8.38
2022-10-24T03:45:54.776Z,8.35
2022-10-24T03:48:29.605Z,8.35
2022-10-24T03:50:56.255Z,8.34
2022-10-24T03:53:22.969Z,8.34
2022-10-24T03:55:49.590Z,8.33
2022-10-24T03:58:16.773Z,8.35
2022-10-24T04:00:43.537Z,8.38
2022-10-24T04:03:10.255Z,8.39
2022-10-24T04:05:37.191Z,8.38
2022-10-24T04:08:04.065Z,8.35
2022-10-24T04:10:30.833Z,8.32
2022-10-24T04:12:57.498Z,8.33
2022-10-24T04:15:24.428Z,8.35
2022-10-24T04:17:51.108Z,8.36
2022-10-24T04:20:20.045Z,8.36
2022-10-24T04:22:47.202Z,8.35
2022-10-24T04:25:14.955Z,8.34
2022-10-24T04:27:41.824Z,8.33
2022-10-24T04:30:16.344Z,8.34
2022-10-24T04:32:44.288Z,8.31
2022-10-24T04:35:11.782Z,8.21
2022-10-24T04:37:38.432Z,8.06
2022-10-24T04:40:06.321Z,7.85
2022-10-24T04:42:33.036Z,7.70
2022-10-24T04:44:59.895Z,7.64
2022-10-24T04:47:26.621Z,7.62
2022-10-24T04:49:53.321Z,7.63
2022-10-24T04:52:19.936Z,7.65
2022-10-24T04:54:46.575Z,7.69
2022-10-24T04:57:13.248Z,7.76
2022-10-24T04:59:39.968Z,7.83
2022-10-24T05:02:06.671Z,7.90
2022-10-24T05:04:33.624Z,7.97
2022-10-24T05:07:01.005Z,8.08
2022-10-24T05:09:27.589Z,8.17
2022-10-24T05:11:57.358Z,8.24
2022-10-24T05:14:24.523Z,8.30
2022-10-24T05:16:51.192Z,8.38
2022-10-24T05:19:19.114Z,8.47
2022-10-24T05:21:46.116Z,8.52
2022-10-24T05:24:13.019Z,8.49
2022-10-24T05:26:39.661Z,8.33
2022-10-24T05:31:37.874Z,8.07
2022-10-24T05:34:04.636Z,8.23
2022-10-24T05:36:31.651Z,8.30
2022-10-24T05:38:58.297Z,8.29
2022-10-24T05:41:25.293Z,8.27
2022-10-24T05:43:52.031Z,8.25
2022-10-24T05:46:18.745Z,8.22
2022-10-24T05:48:45.366Z,8.19
2022-10-24T05:51:12.027Z,8.18
2022-10-24T05:53:38.761Z,8.18
2022-10-24T05:56:05.975Z,8.17
2022-10-24T05:58:33.045Z,8.14
2022-10-24T06:01:00.432Z,8.14
2022-10-24T06:03:27.128Z,8.16
2022-10-24T06:05:53.742Z,8.20
2022-10-24T06:08:20.353Z,8.26
2022-10-24T06:10:51.421Z,8.31
2022-10-24T06:13:18.067Z,8.40
2022-10-24T06:15:45.306Z,8.49
2022-10-24T06:18:11.940Z,8.56
2022-10-24T06:20:38.880Z,8.64
2022-10-24T06:23:05.631Z,8.71
2022-10-24T06:25:32.314Z,8.78
2022-10-24T06:27:59.348Z,8.84
2022-10-24T06:30:26.239Z,8.89
2022-10-24T06:32:52.953Z,8.98
2022-10-24T06:35:19.645Z,9.15
2022-10-24T06:37:48.138Z,9.30
2022-10-24T06:40:17.101Z,9.44
2022-10-24T06:42:44.769Z,9.55
2022-10-24T06:45:11.697Z,9.70
2022-10-24T06:47:38.409Z,9.83
2022-10-24T06:50:06.064Z,9.96
2022-10-24T06:52:32.696Z,10.10
2022-10-24T06:54:59.526Z,10.22
2022-10-24T06:57:26.372Z,10.42
2022-10-24T06:59:53.222Z,10.59
2022-10-24T07:02:20.071Z,10.74
2022-10-24T07:04:46.825Z,10.88
2022-10-24T07:07:18.484Z,11.01
2022-10-24T07:09:50.815Z,11.07
2022-10-24T07:12:17.609Z,11.21
2022-10-24T07:14:44.221Z,11.35
2022-10-24T07:17:10.860Z,11.45
2022-10-24T07:19:37.615Z,11.53
2022-10-24T07:22:04.867Z,11.62
2022-10-24T07:24:31.488Z,11.74
2022-10-24T07:26:58.080Z,11.80
2022-10-24T07:29:24.932Z,11.89
2022-10-24T07:31:51.624Z,11.98
2022-10-24T07:34:18.414Z,12.11
2022-10-24T07:36:45.126Z,12.22
2022-10-24T07:39:13.139Z,12.28
2022-10-24T07:41:41.312Z,12.36
2022-10-24T07:44:09.743Z,12.48
2022-10-24T07:46:36.655Z,12.57
2022-10-24T07:49:03.326Z,12.63
2022-10-24T07:51:31.218Z,12.69
2022-10-24T07:53:58.399Z,12.70
2022-10-24T07:56:25.115Z,12.83
2022-10-24T07:58:51.843Z,12.99
2022-10-24T08:01:21.626Z,13.03
2022-10-24T08:03:49.108Z,13.18
2022-10-24T08:06:20.326Z,13.36
2022-10-24T08:08:47.457Z,13.50
2022-10-24T08:11:17.508Z,13.61
2022-10-24T08:13:44.963Z,13.83
2022-10-24T08:16:13.993Z,14.15
2022-10-24T08:18:40.740Z,14.67
2022-10-24T08:21:12.837Z,15.05
2022-10-24T08:23:42.428Z,15.47
2022-10-24T08:26:12.893Z,15.89
2022-10-24T08:28:40.299Z,16.37
2022-10-24T08:31:10.781Z,16.83
2022-10-24T08:33:38.107Z,17.12
2022-10-24T08:36:13.112Z,17.56
2022-10-24T08:38:39.793Z,18.00
2022-10-24T08:41:09.494Z,18.46
2022-10-24T08:43:36.359Z,18.81
2022-10-24T08:46:12.186Z,19.35
2022-10-24T08:48:52.094Z,19.91
2022-10-24T08:51:21.419Z,20.28
2022-10-24T08:53:51.978Z,20.54
2022-10-24T08:56:18.769Z,21.01
2022-10-24T08:58:46.618Z,21.31
2022-10-24T09:01:27.692Z,21.52
2022-10-24T09:03:56.899Z,21.44
2022-10-24T09:06:29.912Z,21.52
2022-10-24T09:09:10.225Z,21.61
2022-10-24T09:11:51.830Z,21.72
2022-10-24T09:14:38.235Z,21.46
2022-10-24T09:17:23.083Z,21.58
2022-10-24T09:19:53.141Z,21.76
2022-10-24T09:22:22.206Z,21.70
2022-10-24T09:24:57.454Z,21.57
2022-10-24T09:27:29.115Z,21.80
2022-10-24T09:29:58.037Z,22.08
2022-10-24T09:32:30.029Z,22.42
2022-10-24T09:35:03.084Z,22.91
2022-10-24T09:37:36.513Z,23.31
2022-10-24T09:40:08.439Z,23.51
2022-10-24T09:42:38.116Z,23.70
2022-10-24T09:45:25.716Z,23.94
2022-10-24T09:48:02.624Z,24.20
2022-10-24T09:50:33.957Z,24.41
2022-10-24T09:53:02.898Z,24.65
2022-10-24T09:55:31.491Z,24.69
2022-10-24T09:58:03.521Z,24.82
2022-10-24T10:00:34.405Z,24.98
2022-10-24T10:03:23.539Z,25.16
2022-10-24T10:05:56.380Z,25.26
2022-10-24T10:08:29.518Z,25.55
2022-10-24T10:11:05.986Z,25.72
2022-10-24T10:13:53.279Z,25.79
2022-10-24T10:16:23.798Z,25.89
2022-10-24T10:19:00.584Z,26.07
2022-10-24T10:21:27.405Z,26.27
2022-10-24T10:23:56.227Z,26.57
2022-10-24T10:26:41.305Z,26.75
2022-10-24T10:29:17.676Z,26.54
2022-10-24T10:32:02.240Z,26.54
2022-10-24T10:34:42.587Z,26.64
2022-10-24T10:37:27.920Z,26.67
2022-10-24T10:40:22.622Z,26.83
2022-10-24T10:43:15.588Z,26.74
2022-10-24T10:45:47.910Z,27.06
2022-10-24T10:48:32.327Z,27.39
2022-10-24T10:51:11.372Z,27.59
2022-10-24T10:54:06.211Z,27.53
2022-10-24T10:56:53.604Z,27.57
2022-10-24T10:59:29.295Z,27.77
2022-10-24T11:02:27.446Z,27.85
2022-10-24T11:05:21.972Z,28.14
2022-10-24T11:08:10.101Z,27.80
2022-10-24T11:11:03.214Z,26.56
2022-10-24T11:13:40.045Z,26.56
2022-10-24T11:16:13.041Z,26.89
2022-10-24T11:18:44.313Z,27.32
2022-10-24T11:21:14.175Z,27.72
2022-10-24T11:23:48.885Z,28.15
2022-10-24T11:26:35.503Z,28.16
2022-10-24T11:29:22.031Z,28.15
2022-10-24T11:32:17.324Z,28.40
2022-10-24T11:34:56.329Z,28.13
2022-10-24T11:37:38.264Z,28.20
2022-10-24T11:40:21.168Z,28.24
2022-10-24T11:43:15.592Z,27.92
2022-10-24T11:45:58.872Z,27.90
2022-10-24T11:48:31.303Z,28.01
2022-10-24T11:51:27.425Z,27.73
2022-10-24T11:53:59.494Z,27.67
2022-10-24T11:56:42.454Z,27.67
2022-10-24T11:59:18.293Z,27.53
2022-10-24T12:01:50.819Z,27.32
2022-10-24T12:04:36.405Z,26.78
2022-10-24T12:07:24.419Z,26.45
2022-10-24T12:10:19.323Z,26.07
2022-10-24T12:13:17.647Z,24.77
2022-10-24T12:16:13.844Z,24.10
2022-10-24T12:18:45.656Z,23.91
2022-10-24T12:21:19.301Z,24.01
2022-10-24T12:23:57.290Z,24.35
2022-10-24T12:26:29.194Z,24.57
2022-10-24T12:29:07.091Z,24.87
2022-10-24T12:31:37.333Z,25.67
2022-10-24T12:34:18.879Z,25.99
2022-10-24T12:37:08.976Z,26.10
2022-10-24T12:39:39.148Z,26.19
2022-10-24T12:42:32.763Z,26.13
2022-10-24T12:44:59.495Z,26.14
2022-10-24T12:47:38.180Z,26.24
2022-10-24T12:50:20.511Z,26.04
2022-10-24T12:52:48.253Z,25.44
2022-10-24T12:55:39.336Z,25.31
2022-10-24T12:58:30.951Z,25.42
2022-10-24T13:00:59.565Z,25.45
2022-10-24T13:03:41.862Z,25.40
2022-10-24T13:06:43.046Z,25.35
2022-10-24T13:09:12.666Z,25.00
2022-10-24T13:11:52.187Z,24.68
2022-10-24T13:14:53.001Z,24.49
2022-10-24T13:17:47.705Z,24.25
2022-10-24T13:20:21.364Z,24.12
2022-10-24T13:22:50.426Z,23.88
2022-10-24T13:25:34.462Z,23.64
2022-10-24T13:28:18.940Z,23.63
2022-10-24T13:30:49.586Z,23.74
2022-10-24T13:33:28.268Z,23.93
2022-10-24T13:36:05.379Z,24.00
2022-10-24T13:38:34.177Z,23.98
2022-10-24T13:41:03.584Z,24.00
2022-10-24T13:43:30.415Z,23.92
2022-10-24T13:46:08.362Z,23.86
2022-10-24T13:48:47.263Z,23.67
2022-10-24T13:51:21.085Z,23.35
2022-10-24T13:54:25.822Z,23.36
2022-10-24T13:56:52.480Z,23.45
2022-10-24T13:59:36.744Z,23.68
2022-10-24T14:02:14.262Z,23.68
2022-10-24T14:04:46.338Z,23.65
2022-10-24T14:07:20.475Z,23.52
2022-10-24T14:10:12.697Z,23.26
2022-10-24T14:12:40.392Z,23.30
2022-10-24T14:15:19.223Z,23.20
2022-10-24T14:17:58.088Z,22.90
2022-10-24T14:20:29.047Z,22.50
2022-10-24T14:22:56.103Z,21.94
2022-10-24T14:25:29.594Z,21.37
2022-10-24T14:27:59.998Z,20.95
2022-10-24T14:30:34.442Z,20.70
2022-10-24T14:33:07.192Z,20.48
2022-10-24T14:35:34.413Z,20.37
2022-10-24T14:38:03.941Z,20.14
2022-10-24T14:40:33.817Z,19.83
2022-10-24T14:43:00.508Z,19.62
2022-10-24T14:45:29.950Z,19.28
2022-10-24T14:48:00.070Z,18.91
2022-10-24T14:50:42.807Z,18.59
2022-10-24T14:53:30.435Z,18.31
2022-10-24T14:55:59.506Z,18.06
2022-10-24T14:58:33.027Z,17.85
2022-10-24T15:01:00.138Z,17.62
2022-10-24T15:03:28.170Z,17.40
2022-10-24T15:05:54.822Z,17.22
2022-10-24T15:08:27.597Z,17.08
2022-10-24T15:11:21.250Z,16.94
2022-10-24T15:14:05.554Z,16.78
2022-10-24T15:16:39.095Z,16.68
2022-10-24T15:19:13.437Z,16.59
2022-10-24T15:21:42.586Z,16.52
2022-10-24T15:24:21.994Z,16.44
2022-10-24T15:26:49.037Z,16.32
2022-10-24T15:29:21.561Z,16.30
2022-10-24T15:31:50.810Z,16.25
2022-10-24T15:34:20.470Z,16.19
2022-10-24T15:36:49.541Z,16.15
2022-10-24T15:39:24.263Z,16.12
2022-10-24T15:41:52.365Z,16.10
2022-10-24T15:44:26.064Z,16.07
2022-10-24T15:46:53.746Z,16.03
2022-10-24T15:49:20.457Z,16.00
2022-10-24T15:51:50.432Z,15.96
2022-10-24T15:54:21.159Z,15.91
2022-10-24T15:56:48.822Z,15.85
2022-10-24T15:59:17.131Z,15.80
2022-10-24T16:01:49.111Z,15.77
2022-10-24T16:04:16.766Z,15.75
2022-10-24T16:06:43.508Z,15.76
2022-10-24T16:09:14.907Z,15.74
2022-10-24T16:11:41.817Z,15.73
2022-10-24T16:14:13.885Z,15.71
2022-10-24T16:16:40.594Z,15.69
2022-10-24T16:19:09.004Z,15.69
2022-10-24T16:21:36.135Z,15.67
2022-10-24T16:24:03.388Z,15.67
2022-10-24T16:26:30.019Z,15.68
2022-10-24T16:28:56.683Z,15.68
2022-10-24T16:31:23.581Z,15.68
2022-10-24T16:33:51.370Z,15.66
2022-10-24T16:36:20.816Z,15.64
2022-10-24T16:38:51.198Z,15.59
2022-10-24T16:41:21.449Z,15.54
2022-10-24T16:43:49.929Z,15.54
2022-10-24T16:46:19.927Z,15.54
2022-10-24T16:48:47.353Z,15.53
2022-10-24T16:51:22.863Z,15.51
2022-10-24T16:53:49.726Z,15.50
2022-10-24T16:56:16.846Z,15.50
2022-10-24T16:58:44.177Z,15.48
2022-10-24T17:01:13.245Z,15.46
2022-10-24T17:03:40.923Z,15.45
2022-10-24T17:06:08.643Z,15.41
2022-10-24T17:08:35.785Z,15.38
2022-10-24T17:11:03.247Z,15.34
2022-10-24T17:13:29.951Z,15.31
2022-10-24T17:15:57.154Z,15.26
2022-10-24T17:18:26.122Z,15.22
2022-10-24T17:20:59.633Z,15.17
2022-10-24T17:23:28.644Z,15.30
2022-10-24T17:25:59.402Z,15.42
2022-10-24T17:28:32.330Z,15.33
2022-10-24T17:31:00.367Z,15.23
2022-10-24T17:33:27.261Z,15.18
2022-10-24T17:35:56.211Z,15.16
2022-10-24T17:38:32.350Z,15.16
2022-10-24T17:41:09.199Z,15.18
2022-10-24T17:43:36.099Z,15.14
2022-10-24T17:46:02.975Z,15.10
2022-10-24T17:48:30.008Z,15.07
2022-10-24T17:50:58.136Z,15.01
2022-10-24T17:53:24.829Z,14.93
2022-10-24T17:55:51.615Z,14.86
2022-10-24T17:58:18.791Z,14.77
2022-10-24T18:00:45.906Z,14.78
2022-10-24T18:03:13.765Z,14.76
2022-10-24T18:05:41.086Z,14.73
2022-10-24T18:08:09.335Z,14.71
2022-10-24T18:10:37.556Z,14.70
2022-10-24T18:13:04.938Z,14.68
2022-10-24T18:15:31.784Z,14.68
2022-10-24T18:17:58.350Z,14.67
2022-10-24T18:20:24.941Z,14.67
2022-10-24T18:22:51.664Z,14.67
2022-10-24T18:25:21.992Z,14.65
2022-10-24T18:27:50.670Z,14.64
2022-10-24T18:30:21.696Z,14.61
2022-10-24T18:32:48.589Z,14.58
2022-10-24T18:35:15.423Z,14.56
2022-10-24T18:37:42.092Z,14.55
2022-10-24T18:40:09.581Z,14.55
2022-10-24T18:43:00.638Z,14.54
2022-10-24T18:45:27.939Z,14.51
2022-10-24T18:47:55.112Z,14.51
2022-10-24T18:50:24.431Z,14.50
2022-10-24T18:53:06.645Z,14.49
2022-10-24T18:55:34.923Z,14.68
2022-10-24T18:58:02.298Z,14.85
2022-10-24T19:00:31.380Z,14.80
2022-10-24T19:03:23.125Z,14.69
2022-10-24T19:05:55.757Z,14.60
2022-10-24T19:08:24.687Z,14.57
2022-10-24T19:10:55.280Z,14.56
2022-10-24T19:13:23.918Z,14.54
2022-10-24T19:15:59.621Z,14.54
2022-10-24T19:18:29.340Z,14.56
2022-10-24T19:20:56.034Z,14.65
2022-10-24T19:23:24.113Z,14.74
2022-10-24T19:25:51.289Z,14.78
2022-10-24T19:28:19.611Z,14.81
2022-10-24T19:30:47.181Z,14.84
2022-10-24T19:33:14.553Z,14.85
2022-10-24T19:35:46.321Z,14.84
2022-10-24T19:38:17.217Z,14.79
2022-10-24T19:40:49.165Z,14.72
2022-10-24T19:43:15.764Z,14.60
2022-10-24T19:45:50.154Z,14.49
2022-10-24T19:48:17.906Z,14.40
2022-10-24T19:50:44.721Z,14.38
2022-10-24T19:53:13.695Z,14.33
2022-10-24T19:55:40.894Z,14.21
2022-10-24T19:58:12.186Z,14.10
2022-10-24T20:00:40.762Z,13.97
2022-10-24T20:03:07.538Z,13.85
2022-10-24T20:05:35.559Z,13.77
2022-10-24T20:08:02.166Z,13.71
2022-10-24T20:10:28.934Z,13.66
2022-10-24T20:12:55.946Z,13.64
2022-10-24T20:15:22.618Z,13.63
2022-10-24T20:17:49.469Z,13.63
2022-10-24T20:20:18.071Z,13.61
2022-10-24T20:22:45.850Z,13.59
2022-10-24T20:25:12.897Z,13.57
2022-10-24T20:27:40.078Z,13.56
2022-10-24T20:30:07.658Z,13.54
2022-10-24T20:32:34.298Z,13.53
2022-10-24T20:35:01.153Z,13.49
2022-10-24T20:37:27.885Z,13.43
2022-10-24T20:39:54.467Z,13.40
2022-10-24T20:42:21.752Z,13.37
2022-10-24T20:44:48.383Z,13.35
2022-10-24T20:47:15.056Z,13.33
2022-10-24T20:49:41.675Z,13.28
2022-10-24T20:52:08.372Z,13.26
2022-10-24T20:54:34.979Z,13.24
2022-10-24T20:57:01.644Z,13.21
2022-10-24T20:59:28.205Z,13.18
2022-10-24T21:01:54.895Z,13.17
2022-10-24T21:04:21.719Z,13.16
2022-10-24T21:06:48.430Z,13.13
2022-10-24T21:09:15.024Z,13.11
2022-10-24T21:11:41.765Z,13.05
2022-10-24T21:14:11.818Z,13.00
2022-10-24T21:16:38.709Z,12.94
2022-10-24T21:19:05.358Z,12.93
2022-10-24T21:21:32.156Z,12.87
2022-10-24T21:24:04.372Z,12.90
2022-10-24T21:26:33.765Z,12.90
2022-10-24T21:29:08.952Z,12.90
2022-10-24T21:31:41.680Z,12.88
2022-10-24T21:34:08.277Z,12.85
2022-10-24T21:36:34.895Z,12.80
2022-10-24T21:39:01.713Z,12.73
2022-10-24T21:41:28.344Z,12.66
2022-10-24T21:43:54.957Z,12.59
2022-10-24T21:46:26.395Z,12.51
2022-10-24T21:48:54.827Z,12.44
2022-10-24T21:51:25.452Z,12.39
2022-10-24T21:54:07.156Z,12.35
2022-10-24T21:56:36.409Z,12.31
2022-10-24T21:59:06.366Z,12.27
2022-10-24T22:01:35.799Z,12.24
2022-10-24T22:04:04.378Z,12.21
2022-10-24T22:06:32.475Z,12.19
2022-10-24T22:08:59.198Z,12.17
2022-10-24T22:11:28.919Z,12.17
2022-10-24T22:13:56.021Z,12.15
2022-10-24T22:16:25.140Z,12.14
2022-10-24T22:18:52.373Z,12.14
2022-10-24T22:21:25.074Z,12.14
2022-10-24T22:23:52.187Z,12.13
2022-10-24T22:26:18.879Z,12.13
2022-10-24T22:28:45.591Z,12.12
2022-10-24T22:31:13.731Z,12.12
2022-10-24T22:33:41.773Z,12.12
2022-10-24T22:36:29.849Z,12.13
2022-10-24T22:38:56.641Z,12.11
2022-10-24T22:41:24.724Z,12.10
2022-10-24T22:43:51.728Z,12.08
2022-10-24T22:46:58.017Z,12.06
2022-10-24T22:49:30.459Z,12.01
2022-10-24T22:51:57.311Z,11.96
2022-10-24T22:54:24.968Z,11.89
2022-10-24T22:56:52.055Z,11.92
2022-10-24T22:59:19.057Z,11.90
2022-10-24T23:02:10.461Z,11.86
2022-10-24T23:05:00.295Z,11.85
2022-10-24T23:07:45.301Z,11.83
2022-10-24T23:10:18.895Z,11.80
2022-10-24T23:12:47.128Z,11.79
2022-10-24T23:15:15.969Z,11.76
2022-10-24T23:17:44.165Z,11.75
2022-10-24T23:20:22.724Z,11.74
2022-10-24T23:22:58.109Z,11.73
2022-10-24T23:25:36.071Z,11.72
2022-10-24T23:28:46.661Z,11.69
2022-10-24T23:31:13.544Z,11.67
2022-10-24T23:33:40.416Z,11.67
2022-10-24T23:36:19.222Z,11.67
2022-10-24T23:38:46.855Z,11.68
2022-10-24T23:41:13.730Z,11.69
2022-10-24T23:43:40.638Z,11.70
2022-10-24T23:46:31.777Z,11.71
2022-10-24T23:49:33.647Z,11.73
2022-10-24T23:52:34.809Z,11.75
2022-10-24T23:55:02.045Z,11.74
2022-10-24T23:57:28.838Z,11.75
2022-10-24T23:59:55.425Z,11.76
